Time;durP1;ratioP1;P1;durP2;ratioP2;P2;SDS_P1;SDS_P2;PMS_P1;PMS_P2;Temp;Humidity;BMP_temperature;BMP_pressure;BME280_temperature;BME280_humidity;BME280_pressure;Samples;Min_cycle;Max_cycle;Signal;HPM_P1;HPM_P2
2021/03/30 00:00:41;;;;;;;;;;;;;;;18.28;37.22;102542.53;4949004;28;99612;-84
2021/03/30 00:03:07;;;;;;;;;;;;;;;18.34;37.05;102542.28;4947993;28;97770;-84
2021/03/30 00:05:33;;;;;;;;;;;;;;;18.38;36.91;102535.88;4948050;28;96635;-85
2021/03/30 00:07:59;;;;;;;;;;;;;;;18.17;37.52;102550.09;4940151;28;97150;-85
2021/03/30 00:10:29;;;;;;;;;;;;;;;18.22;37.30;102548.13;4950523;28;97810;-86
2021/03/30 00:12:55;;;;;;;;;;;;;;;18.25;37.03;102545.31;4944589;28;98118;-87
2021/03/30 00:15:21;;;;;;;;;;;;;;;17.80;38.10;102547.94;4948343;28;96895;-86
2021/03/30 00:17:47;;;;;;;;;;;;;;;18.17;37.42;102548.31;4951100;28;96767;-87
2021/03/30 00:20:17;;;;;;;;;;;;;;;17.88;38.00;102544.06;4939847;28;97744;-87
2021/03/30 00:22:43;;;;;;;;;;;;;;;17.92;37.59;102545.66;4944685;28;97717;-87
2021/03/30 00:25:10;;;;;;;;;;;;;;;17.99;37.17;102545.44;4946730;28;97162;-85
2021/03/30 00:27:37;;;;;;;;;;;;;;;17.92;37.59;102552.81;4953744;28;96616;-86
2021/03/30 00:30:03;;;;;;;;;;;;;;;17.94;37.55;102548.28;4952818;28;98923;-86
2021/03/30 00:32:29;;;;;;;;;;;;;;;17.84;37.54;102547.78;4938862;28;98106;-85
2021/03/30 00:34:55;;;;;;;;;;;;;;;17.56;38.48;102544.34;4955369;28;96567;-86
2021/03/30 00:37:21;;;;;;;;;;;;;;;17.61;38.04;102547.75;4952019;28;96939;-85
2021/03/30 00:39:46;;;;;;;;;;;;;;;17.79;37.66;102538.16;4954191;28;97894;-86
2021/03/30 00:42:16;;;;;;;;;;;;;;;17.57;38.05;102548.75;4954434;28;97797;-86
2021/03/30 00:44:43;;;;;;;;;;;;;;;17.67;37.99;102539.50;4959873;28;96537;-85
2021/03/30 00:47:09;;;;;;;;;;;;;;;17.56;38.18;102548.81;4952118;28;96243;-85
2021/03/30 00:49:35;;;;;;;;;;;;;;;17.22;38.61;102542.00;4950682;28;97661;-87
2021/03/30 00:52:01;;;;;;;;;;;;;;;17.23;38.86;102545.53;4952925;28;97983;-85
2021/03/30 00:54:27;;;;;;;;;;;;;;;17.48;38.10;102549.09;4946777;28;99464;-83
2021/03/30 00:56:53;;;;;;;;;;;;;;;17.43;38.08;102545.72;4938047;28;96953;-83
2021/03/30 00:59:20;;;;;;;;;;;;;;;17.40;38.48;102541.34;4932332;28;97609;-85
2021/03/30 01:01:46;;;;;;;;;;;;;;;17.31;38.79;102546.16;4947017;28;99123;-85
2021/03/30 01:04:12;;;;;;;;;;;;;;;17.62;38.41;102552.16;4937706;28;96719;-85
2021/03/30 01:06:39;;;;;;;;;;;;;;;17.44;38.85;102544.78;4952267;28;96681;-85
2021/03/30 01:09:15;;;;;;;;;;;;;;;17.36;38.83;102554.88;4950932;28;99107;-84
2021/03/30 01:11:44;;;;;;;;;;;;;;;17.35;38.85;102555.78;4939732;28;98210;-85
2021/03/30 01:14:16;;;;;;;;;;;;;;;17.44;38.50;102560.81;4940430;28;96635;-87
2021/03/30 01:16:46;;;;;;;;;;;;;;;17.28;39.04;102563.16;4949346;28;96721;-85
2021/03/30 01:19:23;;;;;;;;;;;;;;;17.47;38.70;102561.56;4939240;28;99152;-86
2021/03/30 01:22:22;;;;;;;;;;;;;;;17.03;39.49;102570.25;4948154;28;100894;-87
2021/03/30 01:24:51;;;;;;;;;;;;;;;17.19;38.96;102565.28;4951687;28;96882;-85
2021/03/30 01:27:24;;;;;;;;;;;;;;;16.95;39.83;102567.84;4944551;28;96617;-86
2021/03/30 01:29:54;;;;;;;;;;;;;;;17.01;39.68;102564.97;4950739;28;99330;-85
2021/03/30 01:32:26;;;;;;;;;;;;;;;16.72;40.18;102563.25;4949991;28;98783;-86
2021/03/30 01:34:53;;;;;;;;;;;;;;;16.71;39.84;102572.19;4946244;28;97056;-86
2021/03/30 01:37:21;;;;;;;;;;;;;;;16.78;39.79;102564.84;4945478;28;96792;-86
2021/03/30 01:39:50;;;;;;;;;;;;;;;17.16;39.25;102560.03;4944397;28;98263;-88
2021/03/30 01:42:20;;;;;;;;;;;;;;;16.99;39.35;102569.50;4949481;28;98319;-85
2021/03/30 01:44:47;;;;;;;;;;;;;;;17.12;39.09;102562.81;4949544;28;96715;-85
2021/03/30 01:47:14;;;;;;;;;;;;;;;16.83;39.53;102562.91;4946153;28;96798;-85
2021/03/30 01:49:40;;;;;;;;;;;;;;;16.87;39.80;102561.03;4937291;28;99531;-85
2021/03/30 01:52:08;;;;;;;;;;;;;;;16.88;39.98;102563.63;4946593;28;97900;-85
2021/03/30 01:54:35;;;;;;;;;;;;;;;16.91;39.84;102557.31;4944783;28;97625;-84
2021/03/30 01:57:01;;;;;;;;;;;;;;;16.86;39.67;102568.16;4934248;28;96825;-85
2021/03/30 01:59:29;;;;;;;;;;;;;;;16.76;40.05;102563.16;4941400;28;100902;-83
2021/03/30 02:01:55;;;;;;;;;;;;;;;17.03;39.19;102560.44;4944117;28;97751;-84
2021/03/30 02:04:23;;;;;;;;;;;;;;;16.91;39.34;102555.53;4931208;28;96749;-84
2021/03/30 02:06:50;;;;;;;;;;;;;;;16.98;39.25;102557.06;4928486;28;96825;-84
2021/03/30 02:09:27;;;;;;;;;;;;;;;16.83;39.58;102562.91;4936924;28;97834;-84
2021/03/30 02:11:56;;;;;;;;;;;;;;;16.69;39.53;102565.16;4945070;28;98583;-84
2021/03/30 02:14:22;;;;;;;;;;;;;;;16.80;39.56;102560.34;4942263;28;97030;-84
2021/03/30 02:16:51;;;;;;;;;;;;;;;16.55;39.91;102556.66;4942059;28;96815;-84
2021/03/30 02:19:18;;;;;;;;;;;;;;;16.29;40.62;102558.34;4941553;28;99146;-84
2021/03/30 02:21:47;;;;;;;;;;;;;;;16.47;40.17;102561.41;4933055;28;99122;-84
2021/03/30 02:24:14;;;;;;;;;;;;;;;16.26;40.58;102562.94;4944676;28;96680;-82
2021/03/30 02:26:40;;;;;;;;;;;;;;;16.16;40.56;102556.97;4951797;28;98459;-85
2021/03/30 02:29:09;;;;;;;;;;;;;;;16.01;41.14;102564.59;4943539;28;98157;-84
2021/03/30 02:31:36;;;;;;;;;;;;;;;15.73;41.44;102572.50;4949629;28;98821;-84
2021/03/30 02:34:03;;;;;;;;;;;;;;;15.61;41.44;102570.16;4950900;28;96624;-84
2021/03/30 02:36:29;;;;;;;;;;;;;;;15.61;41.72;102570.16;4955098;28;96750;-85
2021/03/30 02:39:00;;;;;;;;;;;;;;;15.90;41.19;102572.88;4955962;28;98889;-84
2021/03/30 02:41:28;;;;;;;;;;;;;;;15.75;41.60;102578.66;4956960;28;97971;-83
2021/03/30 02:43:54;;;;;;;;;;;;;;;15.82;41.44;102572.22;4955633;28;96561;-83
2021/03/30 02:46:21;;;;;;;;;;;;;;;15.67;41.48;102580.66;4952054;28;97033;-83
2021/03/30 02:48:47;;;;;;;;;;;;;;;15.37;42.08;102579.66;4951550;28;97793;-83
2021/03/30 02:51:14;;;;;;;;;;;;;;;15.61;41.43;102583.50;4955160;28;97786;-83
2021/03/30 02:53:40;;;;;;;;;;;;;;;15.10;42.48;102587.44;4956161;28;96899;-83
2021/03/30 02:56:07;;;;;;;;;;;;;;;15.63;41.40;102581.66;4953731;28;98590;-83
2021/03/30 02:58:34;;;;;;;;;;;;;;;15.86;40.97;102589.88;4954437;28;97764;-82
2021/03/30 03:01:00;;;;;;;;;;;;;;;15.90;40.80;102588.88;4952679;28;98878;-82
2021/03/30 03:03:27;;;;;;;;;;;;;;;15.51;41.68;102588.16;4942705;28;97757;-83
2021/03/30 03:05:53;;;;;;;;;;;;;;;15.72;41.28;102592.94;4951788;28;96488;-86
2021/03/30 03:08:19;;;;;;;;;;;;;;;15.67;41.16;102584.19;4945529;28;97795;-85
2021/03/30 03:10:45;;;;;;;;;;;;;;;15.86;41.00;102595.22;4951721;28;99252;-84
2021/03/30 03:13:13;;;;;;;;;;;;;;;15.72;41.29;102587.59;4949491;28;96505;-85
2021/03/30 03:15:39;;;;;;;;;;;;;;;15.94;40.69;102587.88;4957627;28;96110;-85
2021/03/30 03:18:06;;;;;;;;;;;;;;;15.88;40.86;102590.72;4961572;28;97879;-86
2021/03/30 03:20:32;;;;;;;;;;;;;;;15.72;40.88;102587.59;4940362;28;97992;-84
2021/03/30 03:22:59;;;;;;;;;;;;;;;15.83;41.10;102592.63;4945897;28;96737;-86
2021/03/30 03:25:25;;;;;;;;;;;;;;;15.72;41.44;102592.06;4954430;28;96815;-84
2021/03/30 03:27:52;;;;;;;;;;;;;;;15.93;41.26;102594.13;4944934;28;98654;-84
2021/03/30 03:30:19;;;;;;;;;;;;;;;15.84;41.45;102591.72;4948425;28;99079;-83
2021/03/30 03:32:45;;;;;;;;;;;;;;;15.79;41.57;102585.66;4952607;28;96649;-83
2021/03/30 03:35:11;;;;;;;;;;;;;;;16.27;40.81;102586.91;4937890;28;96739;-84
2021/03/30 03:37:41;;;;;;;;;;;;;;;16.02;41.69;102599.19;4950099;28;98310;-84
2021/03/30 03:40:07;;;;;;;;;;;;;;;15.85;41.21;102593.47;4948833;28;97795;-84
2021/03/30 03:42:33;;;;;;;;;;;;;;;16.05;41.33;102595.56;4943072;28;96864;-84
2021/03/30 03:45:00;;;;;;;;;;;;;;;15.60;42.19;102598.59;4943315;28;96684;-84
2021/03/30 03:47:27;;;;;;;;;;;;;;;15.49;41.86;102606.84;4943301;28;97756;-84
2021/03/30 03:49:53;;;;;;;;;;;;;;;15.88;41.13;102607.56;4952286;28;98035;-84
2021/03/30 03:52:20;;;;;;;;;;;;;;;15.51;41.73;102598.81;4945664;28;96599;-84
2021/03/30 03:54:46;;;;;;;;;;;;;;;15.15;42.66;102603.31;4952299;28;96771;-83
2021/03/30 03:57:13;;;;;;;;;;;;;;;15.18;42.04;102608.53;4934464;28;98135;-83
2021/03/30 03:59:43;;;;;;;;;;;;;;;14.84;42.13;102611.16;4938537;28;98592;-83
2021/03/30 04:02:12;;;;;;;;;;;;;;;15.15;41.89;102605.97;4926634;28;96604;-85
2021/03/30 04:04:43;;;;;;;;;;;;;;;15.02;41.94;102605.41;4939098;28;96826;-84
2021/03/30 04:07:13;;;;;;;;;;;;;;;15.11;41.72;102607.81;4938743;28;98938;-83
2021/03/30 04:09:39;;;;;;;;;;;;;;;14.98;42.19;102600.19;4932182;28;98861;-83
2021/03/30 04:12:08;;;;;;;;;;;;;;;14.90;42.18;102613.66;4937613;28;96798;-83
2021/03/30 04:14:34;;;;;;;;;;;;;;;14.78;42.51;102600.66;4931965;28;96959;-83
2021/03/30 04:17:00;;;;;;;;;;;;;;;14.94;42.17;102599.41;4936557;28;99190;-84
2021/03/30 04:19:26;;;;;;;;;;;;;;;14.93;41.70;102600.31;4940342;28;96934;-83
2021/03/30 04:21:52;;;;;;;;;;;;;;;14.96;41.80;102602.91;4944523;28;96606;-84
2021/03/30 04:24:18;;;;;;;;;;;;;;;14.83;41.84;102604.09;4935358;28;96774;-84
2021/03/30 04:26:45;;;;;;;;;;;;;;;14.70;42.08;102603.50;4942753;28;97979;-85
2021/03/30 04:29:10;;;;;;;;;;;;;;;14.87;41.94;102608.44;4942507;28;97557;-84
2021/03/30 04:31:37;;;;;;;;;;;;;;;14.56;42.52;102605.63;4939289;28;97086;-85
2021/03/30 04:34:03;;;;;;;;;;;;;;;14.47;42.82;102605.81;4927929;28;96868;-84
2021/03/30 04:36:29;;;;;;;;;;;;;;;14.79;42.25;102613.06;4938066;28;98990;-84
2021/03/30 04:38:56;;;;;;;;;;;;;;;14.74;42.27;102606.97;4925376;28;101700;-85
2021/03/30 04:41:22;;;;;;;;;;;;;;;14.78;42.18;102600.66;4935682;28;97001;-84
2021/03/30 04:43:47;;;;;;;;;;;;;;;14.56;42.62;102608.28;4940645;28;97009;-84
2021/03/30 04:46:13;;;;;;;;;;;;;;;14.70;42.40;102608.81;4940233;28;102387;-86
2021/03/30 04:48:39;;;;;;;;;;;;;;;14.40;42.70;102614.84;4939572;28;97723;-84
2021/03/30 04:51:06;;;;;;;;;;;;;;;14.37;42.65;102606.91;4938662;28;96759;-86
2021/03/30 04:53:33;;;;;;;;;;;;;;;14.46;43.02;102617.38;4949419;28;96990;-86
2021/03/30 04:56:00;;;;;;;;;;;;;;;15.13;41.59;102607.78;4956171;28;98309;-84
2021/03/30 04:58:25;;;;;;;;;;;;;;;14.70;42.17;102614.13;4939699;28;97601;-84
2021/03/30 05:00:51;;;;;;;;;;;;;;;15.08;41.28;102612.38;4944034;28;96713;-84
2021/03/30 05:03:17;;;;;;;;;;;;;;;15.04;41.39;102618.66;4942244;28;98016;-84
2021/03/30 05:05:43;;;;;;;;;;;;;;;15.22;41.08;102625.34;4944011;28;100112;-84
2021/03/30 05:08:09;;;;;;;;;;;;;;;15.12;41.51;102628.22;4943839;28;101163;-85
2021/03/30 05:10:35;;;;;;;;;;;;;;;14.91;42.07;102633.19;4945036;28;96771;-85
2021/03/30 05:13:02;;;;;;;;;;;;;;;15.22;41.34;102638.66;4945046;28;97215;-84
2021/03/30 05:15:27;;;;;;;;;;;;;;;15.37;41.08;102632.91;4925792;28;99334;-84
2021/03/30 05:17:53;;;;;;;;;;;;;;;15.00;41.66;102636.50;4915148;28;98974;-84
2021/03/30 05:20:20;;;;;;;;;;;;;;;15.14;41.77;102641.50;4933397;28;96814;-84
2021/03/30 05:22:46;;;;;;;;;;;;;;;15.37;41.19;102639.13;4949745;28;96855;-85
2021/03/30 05:25:12;;;;;;;;;;;;;;;15.39;40.79;102633.78;4934504;28;98934;-86
2021/03/30 05:27:38;;;;;;;;;;;;;;;15.19;41.14;102636.06;4948477;28;98977;-85
2021/03/30 05:30:07;;;;;;;;;;;;;;;15.51;40.70;102644.97;4942094;28;96834;-86
2021/03/30 05:32:32;;;;;;;;;;;;;;;15.33;40.62;102641.91;4939828;28;96771;-85
2021/03/30 05:34:58;;;;;;;;;;;;;;;15.43;40.29;102648.75;4940753;28;99057;-85
2021/03/30 05:37:24;;;;;;;;;;;;;;;15.21;41.11;102652.88;4957385;28;98757;-85
2021/03/30 05:39:50;;;;;;;;;;;;;;;15.02;41.29;102653.34;4950113;28;97208;-84
2021/03/30 05:42:17;;;;;;;;;;;;;;;15.45;40.94;102647.81;4958522;28;96586;-85
2021/03/30 05:44:43;;;;;;;;;;;;;;;15.81;39.75;102655.78;4946111;28;98107;-84
2021/03/30 05:47:13;;;;;;;;;;;;;;;15.88;39.39;102658.22;4950813;28;96948;-85
2021/03/30 05:49:39;;;;;;;;;;;;;;;15.79;39.63;102662.94;4942387;28;97978;-85
2021/03/30 05:52:08;;;;;;;;;;;;;;;15.69;39.65;102666.75;4944158;28;96740;-83
2021/03/30 05:54:35;;;;;;;;;;;;;;;16.31;38.53;102665.03;4933113;28;99576;-85
2021/03/30 05:57:02;;;;;;;;;;;;;;;16.14;39.60;102677.97;4936192;28;98806;-83
2021/03/30 05:59:29;;;;;;;;;;;;;;;16.18;38.58;102672.50;4938391;28;96941;-85
2021/03/30 06:01:56;;;;;;;;;;;;;;;16.35;37.85;102670.22;4943082;28;96912;-83
2021/03/30 06:04:25;;;;;;;;;;;;;;;16.52;36.68;102666.19;4940763;28;97844;-85
2021/03/30 06:06:51;;;;;;;;;;;;;;;16.62;35.94;102663.22;4946457;28;97707;-88
2021/03/30 06:09:20;;;;;;;;;;;;;;;16.57;36.50;102670.47;4942500;28;97430;-88
2021/03/30 06:11:46;;;;;;;;;;;;;;;16.59;36.08;102671.31;4945152;28;96857;-84
2021/03/30 06:14:12;;;;;;;;;;;;;;;16.64;35.77;102665.84;4941609;28;97297;-83
2021/03/30 06:16:39;;;;;;;;;;;;;;;16.83;35.06;102674.16;4938080;28;97716;-89
2021/03/30 06:19:10;;;;;;;;;;;;;;;16.85;34.86;102675.00;4936625;28;96762;-85
2021/03/30 06:21:39;;;;;;;;;;;;;;;16.87;34.61;102678.50;4928668;28;96985;-85
2021/03/30 06:24:24;;;;;;;;;;;;;;;16.81;34.80;102682.22;4943946;28;99076;-86
2021/03/30 06:26:51;;;;;;;;;;;;;;;17.04;34.04;102690.41;4945587;28;99313;-84
2021/03/30 06:29:23;;;;;;;;;;;;;;;16.86;33.99;102690.09;4958557;28;97289;-83
2021/03/30 06:31:50;;;;;;;;;;;;;;;17.01;33.67;102693.16;4949329;28;96763;-86
2021/03/30 06:34:24;;;;;;;;;;;;;;;17.53;33.15;102699.47;4952061;28;99389;-85
2021/03/30 06:36:51;;;;;;;;;;;;;;;17.36;33.63;102693.81;4947304;28;97136;-85
2021/03/30 06:39:17;;;;;;;;;;;;;;;16.67;33.51;102701.31;4953472;28;96434;-83
2021/03/30 06:41:47;;;;;;;;;;;;;;;16.95;33.28;102700.47;4942328;28;96862;-83
2021/03/30 06:44:26;;;;;;;;;;;;;;;17.54;32.69;102698.53;4939175;28;99571;-83
2021/03/30 06:46:53;;;;;;;;;;;;;;;17.71;32.15;102700.69;4943838;28;96801;-85
2021/03/30 06:49:19;;;;;;;;;;;;;;;18.01;31.74;102706.75;4952078;28;96909;-83
2021/03/30 06:51:46;;;;;;;;;;;;;;;17.80;32.06;102706.56;4948564;28;97877;-84
2021/03/30 06:54:16;;;;;;;;;;;;;;;17.71;32.02;102708.72;4954315;28;97679;-84
2021/03/30 06:56:46;;;;;;;;;;;;;;;18.35;31.15;102703.72;4942745;28;99460;-83
2021/03/30 06:59:12;;;;;;;;;;;;;;;18.44;31.04;102708.75;4943336;28;96740;-84
2021/03/30 07:01:38;;;;;;;;;;;;;;;18.37;30.81;102705.44;4924052;28;96945;-84
2021/03/30 07:04:05;;;;;;;;;;;;;;;18.53;30.35;102703.03;4945233;28;101842;-84
2021/03/30 07:06:32;;;;;;;;;;;;;;;18.83;29.95;102698.34;4920097;28;98593;-84
2021/03/30 07:08:59;;;;;;;;;;;;;;;19.17;29.66;102701.41;4929869;28;96902;-82
2021/03/30 07:11:29;;;;;;;;;;;;;;;19.21;28.77;102710.22;4937893;28;96869;-82
2021/03/30 07:13:56;;;;;;;;;;;;;;;19.59;28.55;102708.66;4937652;28;99758;-85
2021/03/30 07:16:23;;;;;;;;;;;;;;;19.03;28.74;102704.66;4947364;28;96771;-85
2021/03/30 07:18:50;;;;;;;;;;;;;;;19.40;28.64;102709.41;4937313;28;96925;-84
2021/03/30 07:21:19;;;;;;;;;;;;;;;19.47;28.52;102705.56;4938155;28;96937;-83
2021/03/30 07:23:46;;;;;;;;;;;;;;;19.46;28.42;102709.19;4938617;28;99583;-86
2021/03/30 07:26:15;;;;;;;;;;;;;;;19.04;28.55;102711.75;4930966;28;100368;-80
2021/03/30 07:28:45;;;;;;;;;;;;;;;18.80;28.85;102709.19;4928393;28;96843;-85
2021/03/30 07:31:12;;;;;;;;;;;;;;;19.11;28.75;102715.06;4939659;28;96780;-85
2021/03/30 07:33:41;;;;;;;;;;;;;;;19.50;28.41;102713.47;4937925;28;97900;-84
2021/03/30 07:36:09;;;;;;;;;;;;;;;19.74;28.03;102710.69;4929933;28;99079;-85
2021/03/30 07:38:39;;;;;;;;;;;;;;;19.95;27.86;102722.31;4936053;28;97064;-85
2021/03/30 07:41:05;;;;;;;;;;;;;;;19.80;27.97;102726.53;4945152;28;96738;-84
2021/03/30 07:43:43;;;;;;;;;;;;;;;20.29;27.33;102715.38;4944434;28;99578;-86
2021/03/30 07:48:56;;;;;;;;;;;;;;;19.79;28.45;102724.78;5410255;22;100471;-84
2021/03/30 07:51:33;;;;;;;;;;;;;;;20.25;27.99;102713.78;4946250;28;97000;-85
2021/03/30 07:54:07;;;;;;;;;;;;;;;20.40;28.01;102712.25;4943354;28;102148;-84
2021/03/30 07:56:51;;;;;;;;;;;;;;;20.96;27.16;102709.56;4944955;28;99155;-85
2021/03/30 07:59:37;;;;;;;;;;;;;;;20.92;27.68;102708.00;4952399;28;96658;-85
2021/03/30 08:02:04;;;;;;;;;;;;;;;20.96;27.86;102714.94;4956061;28;96537;-84
2021/03/30 08:04:30;;;;;;;;;;;;;;;20.66;28.17;102719.09;4939656;28;97706;-85
2021/03/30 08:06:56;;;;;;;;;;;;;;;20.63;28.67;102719.22;4966566;28;97026;-84
2021/03/30 08:09:22;;;;;;;;;;;;;;;20.79;28.65;102722.09;4953094;28;95904;-85
2021/03/30 08:11:53;;;;;;;;;;;;;;;21.22;28.24;102712.84;4961012;28;97600;-84
2021/03/30 08:14:42;;;;;;;;;;;;;;;21.34;27.78;102720.31;4952601;28;99332;-86
2021/03/30 08:17:10;;;;;;;;;;;;;;;21.88;27.10;102717.50;4953051;28;100408;-84
2021/03/30 08:19:51;;;;;;;;;;;;;;;21.45;28.06;102717.97;4949235;28;96865;-84
2021/03/30 08:22:17;;;;;;;;;;;;;;;21.55;27.52;102731.81;4955042;28;97197;-85
2021/03/30 08:24:56;;;;;;;;;;;;;;;21.91;27.14;102726.38;4954084;28;99245;-84
2021/03/30 08:27:41;;;;;;;;;;;;;;;21.16;27.81;102726.59;4952408;28;97703;-84
2021/03/30 08:30:30;;;;;;;;;;;;;;;21.21;27.79;102727.22;4948054;28;96101;-84
2021/03/30 08:32:57;;;;;;;;;;;;;;;21.58;27.37;102724.47;4957936;28;96054;-81
2021/03/30 08:35:40;;;;;;;;;;;;;;;21.98;26.96;102723.34;4962497;28;97905;-85
2021/03/30 08:38:06;;;;;;;;;;;;;;;22.06;26.88;102728.28;4949283;28;96858;-82
2021/03/30 08:40:42;;;;;;;;;;;;;;;21.85;27.19;102722.19;4954810;28;97224;-84
2021/03/30 08:43:21;;;;;;;;;;;;;;;22.32;26.48;102721.56;4962194;28;96836;-82
2021/03/30 08:46:01;;;;;;;;;;;;;;;22.41;26.28;102721.91;4952535;28;97836;-83
2021/03/30 08:48:32;;;;;;;;;;;;;;;22.35;26.51;102726.75;4939920;28;98012;-84
2021/03/30 08:50:58;;;;;;;;;;;;;;;22.86;26.11;102729.31;4947124;28;96658;-84
2021/03/30 08:53:26;;;;;;;;;;;;;;;22.89;26.19;102733.69;4952620;28;97264;-85
2021/03/30 08:55:52;;;;;;;;;;;;;;;22.53;26.04;102726.63;4953746;28;99351;-83
2021/03/30 08:58:18;;;;;;;;;;;;;;;21.95;26.56;102731.53;4945040;28;96945;-84
2021/03/30 09:00:45;;;;;;;;;;;;;;;22.40;26.17;102730.94;4946452;28;97271;-84
2021/03/30 09:03:14;;;;;;;;;;;;;;;22.69;25.84;102733.88;4946925;28;96714;-83
2021/03/30 09:05:48;;;;;;;;;;;;;;;22.37;26.20;102735.63;4938287;28;99154;-84
2021/03/30 09:08:14;;;;;;;;;;;;;;;23.11;25.48;102727.94;4950262;28;98287;-84
2021/03/30 09:10:40;;;;;;;;;;;;;;;23.01;25.98;102727.59;4947754;28;96767;-85
2021/03/30 09:13:10;;;;;;;;;;;;;;;23.01;26.26;102733.84;4947249;28;96800;-84
2021/03/30 09:15:36;;;;;;;;;;;;;;;22.96;26.29;102729.69;4948534;28;101144;-85
2021/03/30 09:18:23;;;;;;;;;;;;;;;22.98;26.22;102728.63;4931110;28;99948;-84
2021/03/30 09:21:15;;;;;;;;;;;;;;;22.79;27.84;102730.63;4947841;28;96791;-85
2021/03/30 09:26:42;;;;;;;;;;;;;;;22.85;28.24;102738.34;4950609;28;99012;-84
2021/03/30 09:29:09;;;;;;;;;;;;;;;23.12;28.14;102730.53;4956651;28;97189;-83
2021/03/30 09:31:42;;;;;;;;;;;;;;;22.34;29.28;102736.66;4948128;28;96587;-83
2021/03/30 09:34:08;;;;;;;;;;;;;;;22.62;29.20;102734.22;5002724;22;99546;-84
2021/03/30 09:36:43;;;;;;;;;;;;;;;22.98;29.24;102734.00;4977636;23;98613;-84
2021/03/30 09:39:24;;;;;;;;;;;;;;;23.15;28.72;102730.38;4947974;28;98127;-84
2021/03/30 09:44:43;;;;;;;;;;;;;;;22.76;29.72;102724.53;4959234;28;96122;-82
2021/03/30 09:47:10;;;;;;;;;;;;;;;22.79;30.22;102721.66;4939260;28;98855;-84
2021/03/30 09:49:53;;;;;;;;;;;;;;;22.82;29.84;102716.09;4954194;28;96751;-86
2021/03/30 09:52:20;;;;;;;;;;;;;;;23.00;30.33;102725.84;4926067;28;98105;-83
2021/03/30 09:54:47;;;;;;;;;;;;;;;23.04;30.16;102719.31;4958732;28;97288;-86
2021/03/30 10:00:52;;;;;;;;;;;;;;;23.33;29.86;102713.13;4944469;28;96621;-85
2021/03/30 10:03:33;;;;;;;;;;;;;;;23.39;29.58;102720.88;4962034;28;96531;-83
2021/03/30 10:06:02;;;;;;;;;;;;;;;23.20;30.50;102722.88;4944967;28;96563;-83
2021/03/30 10:08:38;;;;;;;;;;;;;;;23.51;30.25;102716.59;4937479;28;98133;-82
2021/03/30 10:11:05;;;;;;;;;;;;;;;22.56;31.99;102720.22;4955199;28;98946;-83
2021/03/30 10:13:33;;;;;;;;;;;;;;;23.00;31.13;102715.06;4953935;28;96813;-85
2021/03/30 10:16:01;;;;;;;;;;;;;;;23.64;29.95;102712.22;4956275;28;96628;-83
2021/03/30 10:18:28;;;;;;;;;;;;;;;23.82;29.83;102715.66;4949086;28;99890;-84
2021/03/30 10:20:56;;;;;;;;;;;;;;;23.28;30.28;102707.13;4941122;28;96800;-83
2021/03/30 10:23:36;;;;;;;;;;;;;;;23.34;29.86;102712.19;4967760;28;97276;-84
2021/03/30 10:26:21;;;;;;;;;;;;;;;22.74;30.81;102702.19;4955966;28;97023;-84
2021/03/30 10:28:51;;;;;;;;;;;;;;;23.21;29.96;102705.75;4928790;28;97811;-83
2021/03/30 10:31:25;;;;;;;;;;;;;;;23.05;29.78;102707.56;4941935;28;96661;-84
2021/03/30 10:33:51;;;;;;;;;;;;;;;23.11;29.70;102696.44;4937010;28;97239;-84
2021/03/30 10:36:18;;;;;;;;;;;;;;;23.29;29.75;102699.91;4953760;28;97117;-84
2021/03/30 10:38:59;;;;;;;;;;;;;;;23.40;29.81;102703.72;4940330;28;97963;-84
2021/03/30 10:41:32;;;;;;;;;;;;;;;23.35;29.59;102694.16;4919683;28;97742;-84
2021/03/30 10:43:58;;;;;;;;;;;;;;;23.25;29.86;102698.34;4948581;28;96873;-83
2021/03/30 10:46:30;;;;;;;;;;;;;;;23.12;29.87;102690.09;4936519;28;97100;-83
2021/03/30 10:48:56;;;;;;;;;;;;;;;23.32;29.70;102688.94;4939975;28;97732;-85
2021/03/30 10:51:22;;;;;;;;;;;;;;;23.37;29.70;102681.44;4941716;28;99167;-82
2021/03/30 10:53:49;;;;;;;;;;;;;;;23.63;29.20;102682.66;4944177;28;96665;-83
2021/03/30 10:56:15;;;;;;;;;;;;;;;23.15;30.21;102679.16;4939630;28;96796;-83
2021/03/30 10:58:56;;;;;;;;;;;;;;;23.32;30.14;102684.41;4942392;28;99204;-86
2021/03/30 11:01:23;;;;;;;;;;;;;;;23.16;30.52;102680.88;4953754;28;97807;-86
2021/03/30 11:03:49;;;;;;;;;;;;;;;23.27;30.64;102682.94;4946438;28;98846;-83
2021/03/30 11:06:15;;;;;;;;;;;;;;;22.75;30.68;102660.81;4946505;28;96778;-84
2021/03/30 11:08:41;;;;;;;;;;;;;;;22.79;30.91;102670.44;4947606;28;96761;-84
2021/03/30 11:11:07;;;;;;;;;;;;;;;22.94;30.62;102658.81;4946606;28;97857;-84
2021/03/30 11:13:33;;;;;;;;;;;;;;;22.94;30.69;102667.75;4940505;28;96842;-87
2021/03/30 11:15:59;;;;;;;;;;;;;;;23.30;29.98;102662.03;4943558;28;97237;-84
2021/03/30 11:18:25;;;;;;;;;;;;;;;23.53;29.79;102658.03;4943151;28;98015;-83
2021/03/30 11:20:53;;;;;;;;;;;;;;;22.51;30.73;102653.09;4945089;28;98212;-83
2021/03/30 11:23:19;;;;;;;;;;;;;;;22.99;30.29;102651.31;4950977;28;96560;-85
2021/03/30 11:25:49;;;;;;;;;;;;;;;23.33;29.80;102656.50;4948890;28;96035;-85
2021/03/30 11:28:16;;;;;;;;;;;;;;;23.33;29.40;102648.41;4960832;28;99346;-86
2021/03/30 11:30:47;;;;;;;;;;;;;;;23.31;29.55;102654.81;4942967;28;99294;-87
2021/03/30 11:33:18;;;;;;;;;;;;;;;22.28;31.10;102648.13;4969804;28;96675;-86
2021/03/30 11:35:49;;;;;;;;;;;;;;;22.61;30.59;102653.47;4952512;28;96761;-86
2021/03/30 11:38:16;;;;;;;;;;;;;;;22.73;30.30;102643.84;4959089;28;98038;-83
2021/03/30 11:40:43;;;;;;;;;;;;;;;22.63;30.43;102646.19;4958585;28;97802;-86
2021/03/30 11:43:09;;;;;;;;;;;;;;;23.31;29.60;102647.59;4955515;28;96650;-87
2021/03/30 11:45:36;;;;;;;;;;;;;;;22.92;30.33;102644.53;4937473;28;96520;-87
2021/03/30 11:48:02;;;;;;;;;;;;;;;23.27;29.85;102629.88;4944680;28;98958;-86
2021/03/30 11:50:28;;;;;;;;;;;;;;;23.35;28.96;102635.69;4945679;28;98356;-86
2021/03/30 11:52:54;;;;;;;;;;;;;;;23.47;29.69;102634.13;4957780;28;97467;-85
2021/03/30 11:58:01;;;;;;;;;;;;;;;23.27;29.74;102627.19;4949958;28;96805;-86
2021/03/30 12:00:32;;;;;;;;;;;;;;;23.14;29.81;102620.78;4944519;28;98653;-88
2021/03/30 12:02:57;;;;;;;;;;;;;;;23.04;30.10;102620.44;4953137;28;96859;-87
2021/03/30 12:05:28;;;;;;;;;;;;;;;23.43;29.61;102617.19;4956339;28;96605;-87
2021/03/30 12:07:57;;;;;;;;;;;;;;;23.56;29.63;102621.91;4928234;28;98923;-85
2021/03/30 12:10:23;;;;;;;;;;;;;;;23.47;29.84;102622.41;4936454;28;99337;-84
2021/03/30 12:12:51;;;;;;;;;;;;;;;23.85;29.75;102618.28;4954692;28;96831;-85
2021/03/30 12:15:17;;;;;;;;;;;;;;;23.57;30.29;102618.22;4958415;28;97326;-85
2021/03/30 12:17:45;;;;;;;;;;;;;;;23.52;29.99;102620.34;4946760;28;100059;-84
2021/03/30 12:20:12;;;;;;;;;;;;;;;23.59;29.88;102613.63;4941558;28;99220;-84
2021/03/30 12:22:38;;;;;;;;;;;;;;;23.57;29.91;102612.81;4951859;28;96702;-85
2021/03/30 12:25:06;;;;;;;;;;;;;;;23.49;29.95;102605.22;4924811;28;96838;-86
2021/03/30 12:27:32;;;;;;;;;;;;;;;24.03;29.45;102600.94;4954170;28;99345;-86
2021/03/30 12:29:58;;;;;;;;;;;;;;;23.67;29.18;102606.81;4958153;28;97077;-85
2021/03/30 12:32:24;;;;;;;;;;;;;;;23.76;29.27;102599.97;4959232;28;96814;-87
2021/03/30 12:34:50;;;;;;;;;;;;;;;24.18;28.99;102594.56;4934559;28;96894;-82
2021/03/30 12:37:16;;;;;;;;;;;;;;;23.98;28.90;102597.66;4945083;28;97410;-85
2021/03/30 12:39:42;;;;;;;;;;;;;;;24.06;28.84;102589.06;4949290;28;99056;-83
2021/03/30 12:42:10;;;;;;;;;;;;;;;24.27;28.78;102590.47;4948716;28;96810;-84
2021/03/30 12:44:36;;;;;;;;;;;;;;;24.22;28.71;102582.63;4954415;28;97150;-85
2021/03/30 12:47:02;;;;;;;;;;;;;;;24.36;28.79;102578.16;4953870;28;101208;-86
2021/03/30 12:49:28;;;;;;;;;;;;;;;24.12;28.12;102562.56;4961232;28;98808;-86
2021/03/30 12:51:54;;;;;;;;;;;;;;;24.28;28.07;102575.13;4958780;28;96600;-87
2021/03/30 12:54:21;;;;;;;;;;;;;;;24.21;28.61;102571.94;4952613;28;96854;-85
2021/03/30 12:56:47;;;;;;;;;;;;;;;24.63;27.95;102562.84;4960831;28;97959;-86